Aérodrome :
LOGIN :

S'inscrire | Disclaimer

   EN    FR    IT 

 










Légende :    VFR   VFR Marginal   IFR   IFR Intensif   IFR Très Intensif
Visi : 
Plafond : 
>= 8 km
>= 3000ft
5 à 8 km
1000 à 3000 ft
1500m à 5 km
500 à 1000 ft
800 à 1500m
200 à 500 ft
< 800m
< 200 ft
Symboles :   Orages  Brouillard  Fortes neiges  Fortes précipitations  Vent > 20 kt
SIGMETs :   Divers  Orages  Givrage  Turbulence  Onde Orograph.  Cendres Volcan.







- Altitude de l'aérodrome : 302 ft
- Code IATA : CGN


EDDK - Cologne Bonn

DERNIER METAR :
  • 101920Z 29011KT 9999 FEW045 04/01 Q1023 NOSIG

METARs EXPIRÉS :
  • 101850Z 30011KT 9999 FEW028 04/01 Q1023 NOSIG
  • 101820Z 30011KT 9999 FEW037 04/01 Q1022 NOSIG
  • 101750Z 30012KT 9999 FEW042 04/01 Q1022 NOSIG
  • 101720Z 30013KT 9999 FEW019 04/01 Q1022 NOSIG
  • 101650Z 28012KT 9999 FEW019 05/02 Q1022 NOSIG

TAF TAF EDDK
Valide du 10 à 18h jusqu'au 12 à 00h UTC


101700Z 1018/1124 28010KT 9999 SCT020
PROB30
TEMPO 1109/1115 SHRA BKN014TCU
BECMG 1115/1118 30005KT
Pas de NOTAMs connus pour ce terrain.
2 SIGMETs publiés pour la FIR Langen (EDGG) :
 
Turbulence forte
EDGG SIGMET 3 VALID 102000/102330 EDZF
EDGG LANGEN FIR SEV TURB FCST APRX 50NM WID LINE BTN N5157 E00655 - N4755 E00906 FL180/240 MOV E NC=
Turbulence forte
EDGG SIGMET 2 VALID 101704/102000 EDZF
EDGG LANGEN FIR SEV TURB FCST APRX 40NM WID LINE BTN N5103 E00555 - N4755 E00906 FL180/240 MOV E NC=



MET'MAP, la Météo Aéronautique d'un coup d'oeil ! - Copyright ORBIFLY Décembre 2007 - Disclaimer

ORBIFLY MET'MAP TEAM :

Programmation & Développement : Alexandra Zaïnal
Conception & Développement : Baudouin d'Aumeries
Co-Programmation & Développement : Marc-Olivier Méhu
Soutien technique & logistique : Manuel Goepfert

Contact : metmap@orbifly.com




SOURCES & CREDITS :

   NOAA